LQSA

Details ICAO LQSA (SJJ)
Name Sarajevo
Region Bosnia and Herzegovinia
Timezone Europe/Sarajevo (UTC+1.0)
Plans Departing 153
Arriving 204
Stats Elevation 1,708 ft / 521 m (AMSL)
Location 43.824597° 18.331500°
Runways 1
Magnetic Variation 4.221° E
Sunrise 2017-12-12 06:12:56 UTC / 2017-12-12 07:12:56 Local
Sunset 2017-12-12 15:10:42 UTC / 2017-12-12 16:10:42 Local
Advertisement - Login to hide

Runways

ID Width Length Bearing (true) Bearing (mag) Surface Threshold Offset Overrun Length
12 150 ft / 46 m 8,519 ft / 2,597 m 117.41° 113.19° Asphalt 333 ft / 102 m 0 ft / 0 m
30 150 ft / 46 m 8,519 ft / 2,597 m 297.43° 293.21° Asphalt 666 ft / 203 m 0 ft / 0 m

Approach Navaids

Runway Type Ident Frequency Range Bearing (true) Bearing (mag) Slope Elevation
12 Localiser BHS 110.70 MHz 25 nm / 46 km 117.00° 112.78° - 1,709 ft / 521 m (AMSL)
12 Glidescope BHS 110.70 MHz 25 nm / 46 km 117.00° 112.78° 3.20° 1,705 ft / 520 m (AMSL)
12 DME BHS 110.70 MHz 25 nm / 46 km - - - 1,705 ft / 520 m (AMSL)

Map

Weather


0- 5 10 15 20 25 30 35+ Temperature / ° C

Clouds and Precipitation
Forecast for 2017-12-12 06:00 UTC. Updated an hour ago

Ground ~20,000 ft ~40,000 ft Winds

METAR

LQSA 120430Z 12018G28KT 9999 BKN050 13/06 Q1011 WS ALL RWY NOSIG

TAF

Not found

Frequencies

Ground 121.90 MHz GND
Approach 119.40 MHz GCA
Tower 118.25 MHz TWR
Warning: Do not use this data for real-world aviation or navigation. No guarantee of current accuracy is given.